sensor_id;sensor_type;location;lat;lon;timestamp;P1;durP1;ratioP1;P2;durP2;ratioP2
69087;SDS011;56190;43.562;5.036;2023-08-06T00:01:10;2.00;;;0.85;;
69087;SDS011;56190;43.562;5.036;2023-08-06T00:03:35;1.58;;;0.88;;
69087;SDS011;56190;43.562;5.036;2023-08-06T00:06:01;1.23;;;0.82;;
69087;SDS011;56190;43.562;5.036;2023-08-06T00:08:26;1.67;;;0.77;;
69087;SDS011;56190;43.562;5.036;2023-08-06T00:10:51;1.20;;;0.82;;
69087;SDS011;56190;43.562;5.036;2023-08-06T00:13:16;1.48;;;1.00;;
69087;SDS011;56190;43.562;5.036;2023-08-06T00:15:42;1.20;;;0.90;;
69087;SDS011;56190;43.562;5.036;2023-08-06T00:18:07;1.38;;;0.90;;
69087;SDS011;56190;43.562;5.036;2023-08-06T00:20:32;1.60;;;0.88;;
69087;SDS011;56190;43.562;5.036;2023-08-06T00:22:57;1.15;;;0.80;;
69087;SDS011;56190;43.562;5.036;2023-08-06T00:25:22;1.48;;;0.73;;
69087;SDS011;56190;43.562;5.036;2023-08-06T00:27:48;1.38;;;0.98;;
69087;SDS011;56190;43.562;5.036;2023-08-06T00:30:13;1.33;;;0.90;;
69087;SDS011;56190;43.562;5.036;2023-08-06T00:32:38;2.33;;;0.85;;
69087;SDS011;56190;43.562;5.036;2023-08-06T00:35:03;1.30;;;1.08;;
69087;SDS011;56190;43.562;5.036;2023-08-06T00:37:29;2.22;;;0.88;;
69087;SDS011;56190;43.562;5.036;2023-08-06T00:39:54;0.80;;;0.80;;
69087;SDS011;56190;43.562;5.036;2023-08-06T00:42:20;1.90;;;0.90;;
69087;SDS011;56190;43.562;5.036;2023-08-06T00:44:46;1.17;;;0.93;;
69087;SDS011;56190;43.562;5.036;2023-08-06T00:47:11;1.05;;;0.70;;
69087;SDS011;56190;43.562;5.036;2023-08-06T00:49:37;1.23;;;0.80;;
69087;SDS011;56190;43.562;5.036;2023-08-06T00:52:03;1.85;;;1.15;;
69087;SDS011;56190;43.562;5.036;2023-08-06T00:54:29;1.33;;;0.90;;
69087;SDS011;56190;43.562;5.036;2023-08-06T00:56:55;1.20;;;0.90;;
69087;SDS011;56190;43.562;5.036;2023-08-06T00:59:22;1.95;;;1.15;;
69087;SDS011;56190;43.562;5.036;2023-08-06T01:01:47;3.30;;;1.10;;
69087;SDS011;56190;43.562;5.036;2023-08-06T01:04:15;2.10;;;1.00;;
69087;SDS011;56190;43.562;5.036;2023-08-06T01:07:28;1.30;;;0.82;;
69087;SDS011;56190;43.562;5.036;2023-08-06T01:15:25;2.92;;;1.10;;
69087;SDS011;56190;43.562;5.036;2023-08-06T01:17:53;2.40;;;1.00;;
69087;SDS011;56190;43.562;5.036;2023-08-06T01:20:18;3.45;;;1.25;;
69087;SDS011;56190;43.562;5.036;2023-08-06T01:22:43;2.97;;;1.10;;
69087;SDS011;56190;43.562;5.036;2023-08-06T01:25:09;1.85;;;1.08;;
69087;SDS011;56190;43.562;5.036;2023-08-06T01:32:48;2.17;;;1.02;;
69087;SDS011;56190;43.562;5.036;2023-08-06T01:35:15;2.83;;;1.02;;
69087;SDS011;56190;43.562;5.036;2023-08-06T01:37:41;3.33;;;1.20;;
69087;SDS011;56190;43.562;5.036;2023-08-06T01:40:09;2.13;;;1.17;;
69087;SDS011;56190;43.562;5.036;2023-08-06T01:42:34;2.45;;;0.82;;
69087;SDS011;56190;43.562;5.036;2023-08-06T01:45:00;1.73;;;0.82;;
69087;SDS011;56190;43.562;5.036;2023-08-06T01:47:25;3.13;;;1.10;;
69087;SDS011;56190;43.562;5.036;2023-08-06T01:49:50;2.30;;;0.85;;
69087;SDS011;56190;43.562;5.036;2023-08-06T01:52:15;1.33;;;0.80;;
69087;SDS011;56190;43.562;5.036;2023-08-06T01:54:40;1.33;;;0.82;;
69087;SDS011;56190;43.562;5.036;2023-08-06T01:57:06;1.05;;;0.70;;
69087;SDS011;56190;43.562;5.036;2023-08-06T01:59:31;1.55;;;0.70;;
69087;SDS011;56190;43.562;5.036;2023-08-06T02:01:56;0.93;;;0.70;;
69087;SDS011;56190;43.562;5.036;2023-08-06T02:04:22;1.25;;;0.80;;
69087;SDS011;56190;43.562;5.036;2023-08-06T02:06:47;1.55;;;0.80;;
69087;SDS011;56190;43.562;5.036;2023-08-06T02:09:12;1.48;;;0.90;;
69087;SDS011;56190;43.562;5.036;2023-08-06T02:11:37;1.67;;;0.93;;
69087;SDS011;56190;43.562;5.036;2023-08-06T02:14:03;1.35;;;0.73;;
69087;SDS011;56190;43.562;5.036;2023-08-06T02:16:28;1.50;;;0.70;;
69087;SDS011;56190;43.562;5.036;2023-08-06T02:18:53;1.27;;;0.70;;
69087;SDS011;56190;43.562;5.036;2023-08-06T02:21:18;1.00;;;0.80;;
69087;SDS011;56190;43.562;5.036;2023-08-06T02:23:43;3.03;;;0.80;;
69087;SDS011;56190;43.562;5.036;2023-08-06T02:26:09;0.82;;;0.60;;
69087;SDS011;56190;43.562;5.036;2023-08-06T02:28:34;1.33;;;0.80;;
69087;SDS011;56190;43.562;5.036;2023-08-06T02:30:59;0.90;;;0.70;;
69087;SDS011;56190;43.562;5.036;2023-08-06T02:33:25;1.60;;;0.80;;
69087;SDS011;56190;43.562;5.036;2023-08-06T02:35:51;1.10;;;0.70;;
69087;SDS011;56190;43.562;5.036;2023-08-06T02:38:23;1.77;;;0.90;;
69087;SDS011;56190;43.562;5.036;2023-08-06T02:40:48;2.92;;;1.10;;
69087;SDS011;56190;43.562;5.036;2023-08-06T02:43:14;1.35;;;0.85;;
69087;SDS011;56190;43.562;5.036;2023-08-06T02:45:39;1.50;;;0.82;;
69087;SDS011;56190;43.562;5.036;2023-08-06T02:48:04;2.30;;;1.00;;
69087;SDS011;56190;43.562;5.036;2023-08-06T02:50:30;1.27;;;0.93;;
69087;SDS011;56190;43.562;5.036;2023-08-06T02:52:55;1.10;;;0.70;;
69087;SDS011;56190;43.562;5.036;2023-08-06T02:55:21;1.02;;;0.70;;
69087;SDS011;56190;43.562;5.036;2023-08-06T02:57:46;3.05;;;0.80;;
69087;SDS011;56190;43.562;5.036;2023-08-06T03:00:11;2.28;;;0.90;;
69087;SDS011;56190;43.562;5.036;2023-08-06T03:02:36;2.47;;;0.85;;
69087;SDS011;56190;43.562;5.036;2023-08-06T03:05:02;1.90;;;0.90;;
69087;SDS011;56190;43.562;5.036;2023-08-06T03:07:28;2.17;;;0.82;;
69087;SDS011;56190;43.562;5.036;2023-08-06T03:09:54;1.80;;;0.70;;
69087;SDS011;56190;43.562;5.036;2023-08-06T03:12:19;1.40;;;0.80;;
69087;SDS011;56190;43.562;5.036;2023-08-06T03:14:44;1.83;;;0.95;;
69087;SDS011;56190;43.562;5.036;2023-08-06T03:17:09;2.05;;;0.98;;
69087;SDS011;56190;43.562;5.036;2023-08-06T03:19:35;2.13;;;0.95;;
69087;SDS011;56190;43.562;5.036;2023-08-06T03:22:00;1.77;;;0.80;;
69087;SDS011;56190;43.562;5.036;2023-08-06T03:24:25;2.53;;;0.90;;
69087;SDS011;56190;43.562;5.036;2023-08-06T03:26:50;1.58;;;0.80;;
69087;SDS011;56190;43.562;5.036;2023-08-06T03:29:16;2.03;;;0.70;;
69087;SDS011;56190;43.562;5.036;2023-08-06T03:31:41;1.58;;;0.90;;
69087;SDS011;56190;43.562;5.036;2023-08-06T03:34:06;1.75;;;0.80;;
69087;SDS011;56190;43.562;5.036;2023-08-06T03:36:31;0.95;;;0.70;;
69087;SDS011;56190;43.562;5.036;2023-08-06T03:38:57;1.60;;;1.05;;
69087;SDS011;56190;43.562;5.036;2023-08-06T03:41:22;1.67;;;0.90;;
69087;SDS011;56190;43.562;5.036;2023-08-06T03:43:47;1.92;;;0.85;;
69087;SDS011;56190;43.562;5.036;2023-08-06T03:46:13;3.42;;;1.17;;
69087;SDS011;56190;43.562;5.036;2023-08-06T03:48:38;1.52;;;0.82;;
69087;SDS011;56190;43.562;5.036;2023-08-06T03:51:03;1.73;;;0.73;;
69087;SDS011;56190;43.562;5.036;2023-08-06T03:53:28;1.67;;;0.70;;
69087;SDS011;56190;43.562;5.036;2023-08-06T03:55:53;2.03;;;1.00;;
69087;SDS011;56190;43.562;5.036;2023-08-06T03:58:20;2.15;;;0.80;;
69087;SDS011;56190;43.562;5.036;2023-08-06T04:00:46;0.90;;;0.70;;
69087;SDS011;56190;43.562;5.036;2023-08-06T04:03:11;1.00;;;0.90;;
69087;SDS011;56190;43.562;5.036;2023-08-06T04:05:36;1.50;;;0.90;;
69087;SDS011;56190;43.562;5.036;2023-08-06T04:08:01;1.65;;;1.10;;
69087;SDS011;56190;43.562;5.036;2023-08-06T04:10:26;2.42;;;0.80;;
69087;SDS011;56190;43.562;5.036;2023-08-06T04:12:52;1.98;;;0.88;;
69087;SDS011;56190;43.562;5.036;2023-08-06T04:15:17;2.67;;;1.00;;
69087;SDS011;56190;43.562;5.036;2023-08-06T04:17:42;2.78;;;0.88;;
69087;SDS011;56190;43.562;5.036;2023-08-06T04:20:07;1.55;;;0.85;;
69087;SDS011;56190;43.562;5.036;2023-08-06T04:22:33;3.38;;;1.30;;
69087;SDS011;56190;43.562;5.036;2023-08-06T04:24:58;1.40;;;0.88;;
69087;SDS011;56190;43.562;5.036;2023-08-06T04:27:23;8.18;;;1.58;;
69087;SDS011;56190;43.562;5.036;2023-08-06T04:29:49;2.75;;;1.05;;
69087;SDS011;56190;43.562;5.036;2023-08-06T04:32:14;2.03;;;1.13;;
69087;SDS011;56190;43.562;5.036;2023-08-06T04:34:39;3.33;;;1.17;;
69087;SDS011;56190;43.562;5.036;2023-08-06T04:37:04;2.33;;;1.00;;
69087;SDS011;56190;43.562;5.036;2023-08-06T04:39:30;1.60;;;0.95;;
69087;SDS011;56190;43.562;5.036;2023-08-06T04:41:55;2.15;;;1.20;;
69087;SDS011;56190;43.562;5.036;2023-08-06T04:44:21;1.95;;;0.80;;
69087;SDS011;56190;43.562;5.036;2023-08-06T04:46:47;1.58;;;1.02;;
69087;SDS011;56190;43.562;5.036;2023-08-06T04:49:12;1.23;;;0.70;;
69087;SDS011;56190;43.562;5.036;2023-08-06T04:51:37;1.77;;;0.80;;
69087;SDS011;56190;43.562;5.036;2023-08-06T04:54:03;2.00;;;0.80;;
69087;SDS011;56190;43.562;5.036;2023-08-06T04:56:28;1.85;;;0.77;;
69087;SDS011;56190;43.562;5.036;2023-08-06T04:58:54;2.15;;;1.15;;
69087;SDS011;56190;43.562;5.036;2023-08-06T05:01:19;2.35;;;0.80;;
69087;SDS011;56190;43.562;5.036;2023-08-06T05:03:44;1.27;;;0.75;;
69087;SDS011;56190;43.562;5.036;2023-08-06T05:06:10;1.85;;;0.90;;
69087;SDS011;56190;43.562;5.036;2023-08-06T05:08:35;2.60;;;0.93;;
69087;SDS011;56190;43.562;5.036;2023-08-06T05:11:01;2.33;;;0.90;;
69087;SDS011;56190;43.562;5.036;2023-08-06T05:13:26;2.83;;;0.90;;
69087;SDS011;56190;43.562;5.036;2023-08-06T05:15:53;2.72;;;1.00;;
69087;SDS011;56190;43.562;5.036;2023-08-06T05:18:18;3.10;;;1.05;;
69087;SDS011;56190;43.562;5.036;2023-08-06T05:20:44;2.05;;;0.93;;
69087;SDS011;56190;43.562;5.036;2023-08-06T05:23:09;1.83;;;0.80;;
69087;SDS011;56190;43.562;5.036;2023-08-06T05:25:34;3.28;;;1.10;;
69087;SDS011;56190;43.562;5.036;2023-08-06T05:28:00;2.60;;;0.77;;
69087;SDS011;56190;43.562;5.036;2023-08-06T05:30:26;2.03;;;1.20;;
69087;SDS011;56190;43.562;5.036;2023-08-06T05:32:51;1.33;;;0.68;;
69087;SDS011;56190;43.562;5.036;2023-08-06T05:35:17;4.78;;;0.95;;
69087;SDS011;56190;43.562;5.036;2023-08-06T05:37:42;4.25;;;1.00;;
69087;SDS011;56190;43.562;5.036;2023-08-06T05:40:07;2.15;;;1.00;;
69087;SDS011;56190;43.562;5.036;2023-08-06T05:42:33;2.88;;;0.98;;
69087;SDS011;56190;43.562;5.036;2023-08-06T05:44:58;2.25;;;0.82;;
69087;SDS011;56190;43.562;5.036;2023-08-06T05:47:23;3.35;;;1.20;;
69087;SDS011;56190;43.562;5.036;2023-08-06T05:49:48;3.30;;;1.00;;
69087;SDS011;56190;43.562;5.036;2023-08-06T05:52:14;1.52;;;0.82;;
69087;SDS011;56190;43.562;5.036;2023-08-06T05:54:39;3.45;;;1.27;;
69087;SDS011;56190;43.562;5.036;2023-08-06T05:57:05;3.45;;;1.20;;
69087;SDS011;56190;43.562;5.036;2023-08-06T05:59:30;3.05;;;1.05;;
69087;SDS011;56190;43.562;5.036;2023-08-06T06:01:56;2.22;;;1.10;;
69087;SDS011;56190;43.562;5.036;2023-08-06T06:04:21;2.80;;;0.80;;
69087;SDS011;56190;43.562;5.036;2023-08-06T06:06:46;3.20;;;1.30;;
69087;SDS011;56190;43.562;5.036;2023-08-06T06:09:11;3.03;;;0.95;;
69087;SDS011;56190;43.562;5.036;2023-08-06T06:11:37;4.60;;;1.20;;
69087;SDS011;56190;43.562;5.036;2023-08-06T06:14:02;5.15;;;0.98;;
69087;SDS011;56190;43.562;5.036;2023-08-06T06:16:27;3.13;;;1.17;;
69087;SDS011;56190;43.562;5.036;2023-08-06T06:18:52;5.13;;;1.00;;
69087;SDS011;56190;43.562;5.036;2023-08-06T06:21:19;2.42;;;1.00;;
69087;SDS011;56190;43.562;5.036;2023-08-06T06:23:45;3.45;;;0.90;;
69087;SDS011;56190;43.562;5.036;2023-08-06T06:26:10;4.90;;;1.15;;
69087;SDS011;56190;43.562;5.036;2023-08-06T06:28:35;3.88;;;1.00;;
69087;SDS011;56190;43.562;5.036;2023-08-06T06:31:00;5.28;;;1.15;;
69087;SDS011;56190;43.562;5.036;2023-08-06T06:33:26;2.70;;;0.93;;
69087;SDS011;56190;43.562;5.036;2023-08-06T06:35:52;4.78;;;0.98;;
69087;SDS011;56190;43.562;5.036;2023-08-06T06:38:17;4.20;;;1.42;;
69087;SDS011;56190;43.562;5.036;2023-08-06T06:40:42;4.03;;;1.13;;
69087;SDS011;56190;43.562;5.036;2023-08-06T06:43:07;3.75;;;0.98;;
69087;SDS011;56190;43.562;5.036;2023-08-06T06:45:32;2.88;;;0.93;;
69087;SDS011;56190;43.562;5.036;2023-08-06T06:47:58;3.78;;;1.02;;
69087;SDS011;56190;43.562;5.036;2023-08-06T06:50:23;5.47;;;1.30;;
69087;SDS011;56190;43.562;5.036;2023-08-06T06:52:49;3.47;;;1.25;;
69087;SDS011;56190;43.562;5.036;2023-08-06T06:55:14;5.13;;;1.30;;
69087;SDS011;56190;43.562;5.036;2023-08-06T06:57:39;2.42;;;1.30;;
69087;SDS011;56190;43.562;5.036;2023-08-06T07:00:04;4.18;;;1.05;;
69087;SDS011;56190;43.562;5.036;2023-08-06T07:02:30;3.47;;;0.95;;
69087;SDS011;56190;43.562;5.036;2023-08-06T07:04:55;4.93;;;1.27;;
69087;SDS011;56190;43.562;5.036;2023-08-06T07:07:20;3.78;;;1.15;;
69087;SDS011;56190;43.562;5.036;2023-08-06T07:09:46;3.47;;;1.15;;
69087;SDS011;56190;43.562;5.036;2023-08-06T07:12:11;2.88;;;1.23;;
69087;SDS011;56190;43.562;5.036;2023-08-06T07:14:36;3.70;;;1.02;;
69087;SDS011;56190;43.562;5.036;2023-08-06T07:17:01;3.08;;;0.90;;
69087;SDS011;56190;43.562;5.036;2023-08-06T07:19:27;5.30;;;1.40;;
69087;SDS011;56190;43.562;5.036;2023-08-06T07:21:52;3.83;;;1.25;;
69087;SDS011;56190;43.562;5.036;2023-08-06T07:24:17;2.70;;;1.00;;
69087;SDS011;56190;43.562;5.036;2023-08-06T07:26:42;3.70;;;1.13;;
69087;SDS011;56190;43.562;5.036;2023-08-06T07:29:08;3.33;;;1.30;;
69087;SDS011;56190;43.562;5.036;2023-08-06T07:31:33;4.75;;;1.08;;
69087;SDS011;56190;43.562;5.036;2023-08-06T07:33:58;4.35;;;0.75;;
69087;SDS011;56190;43.562;5.036;2023-08-06T07:36:24;3.33;;;1.10;;
69087;SDS011;56190;43.562;5.036;2023-08-06T07:38:49;3.80;;;1.48;;
69087;SDS011;56190;43.562;5.036;2023-08-06T07:41:20;4.20;;;1.27;;
69087;SDS011;56190;43.562;5.036;2023-08-06T07:43:45;7.20;;;1.95;;
69087;SDS011;56190;43.562;5.036;2023-08-06T07:46:10;4.72;;;1.15;;
69087;SDS011;56190;43.562;5.036;2023-08-06T07:48:38;5.10;;;1.13;;
69087;SDS011;56190;43.562;5.036;2023-08-06T07:51:03;5.88;;;1.30;;
69087;SDS011;56190;43.562;5.036;2023-08-06T07:53:29;5.90;;;1.45;;
69087;SDS011;56190;43.562;5.036;2023-08-06T07:55:57;3.83;;;1.58;;
69087;SDS011;56190;43.562;5.036;2023-08-06T07:58:23;3.47;;;0.95;;
69087;SDS011;56190;43.562;5.036;2023-08-06T08:00:48;2.58;;;0.90;;
69087;SDS011;56190;43.562;5.036;2023-08-06T08:03:14;3.90;;;1.02;;
69087;SDS011;56190;43.562;5.036;2023-08-06T08:05:40;7.30;;;1.48;;
69087;SDS011;56190;43.562;5.036;2023-08-06T08:08:05;4.05;;;1.17;;
69087;SDS011;56190;43.562;5.036;2023-08-06T08:10:31;7.03;;;1.20;;
69087;SDS011;56190;43.562;5.036;2023-08-06T08:12:56;4.25;;;1.20;;
69087;SDS011;56190;43.562;5.036;2023-08-06T08:15:22;4.10;;;1.42;;
69087;SDS011;56190;43.562;5.036;2023-08-06T08:17:47;6.40;;;1.60;;
69087;SDS011;56190;43.562;5.036;2023-08-06T08:20:12;4.97;;;1.40;;
69087;SDS011;56190;43.562;5.036;2023-08-06T08:22:38;4.40;;;1.40;;
69087;SDS011;56190;43.562;5.036;2023-08-06T08:25:03;5.82;;;1.38;;
69087;SDS011;56190;43.562;5.036;2023-08-06T08:27:29;5.00;;;1.17;;
69087;SDS011;56190;43.562;5.036;2023-08-06T08:29:55;4.93;;;1.40;;
69087;SDS011;56190;43.562;5.036;2023-08-06T08:32:20;8.65;;;1.40;;
69087;SDS011;56190;43.562;5.036;2023-08-06T08:34:45;5.28;;;1.50;;
69087;SDS011;56190;43.562;5.036;2023-08-06T08:37:10;5.78;;;1.20;;
69087;SDS011;56190;43.562;5.036;2023-08-06T08:39:36;3.85;;;1.20;;
69087;SDS011;56190;43.562;5.036;2023-08-06T08:42:01;3.85;;;1.00;;
69087;SDS011;56190;43.562;5.036;2023-08-06T08:44:27;6.32;;;1.20;;
69087;SDS011;56190;43.562;5.036;2023-08-06T08:46:54;5.60;;;1.20;;
69087;SDS011;56190;43.562;5.036;2023-08-06T08:49:20;5.53;;;1.60;;
69087;SDS011;56190;43.562;5.036;2023-08-06T08:51:46;6.28;;;1.10;;
69087;SDS011;56190;43.562;5.036;2023-08-06T08:54:11;10.68;;;2.08;;
69087;SDS011;56190;43.562;5.036;2023-08-06T08:56:38;5.60;;;1.17;;
69087;SDS011;56190;43.562;5.036;2023-08-06T08:59:03;3.08;;;1.33;;
69087;SDS011;56190;43.562;5.036;2023-08-06T09:01:28;3.60;;;1.13;;
69087;SDS011;56190;43.562;5.036;2023-08-06T09:03:54;3.65;;;0.98;;
69087;SDS011;56190;43.562;5.036;2023-08-06T09:06:19;5.53;;;0.90;;
69087;SDS011;56190;43.562;5.036;2023-08-06T09:08:56;4.45;;;1.23;;
69087;SDS011;56190;43.562;5.036;2023-08-06T09:11:26;3.78;;;1.10;;
69087;SDS011;56190;43.562;5.036;2023-08-06T09:13:51;3.03;;;1.23;;
69087;SDS011;56190;43.562;5.036;2023-08-06T09:16:18;7.78;;;1.48;;
69087;SDS011;56190;43.562;5.036;2023-08-06T09:18:43;4.25;;;1.08;;
69087;SDS011;56190;43.562;5.036;2023-08-06T09:21:14;2.63;;;1.13;;
69087;SDS011;56190;43.562;5.036;2023-08-06T09:23:40;5.05;;;1.40;;
69087;SDS011;56190;43.562;5.036;2023-08-06T09:26:05;2.95;;;0.98;;
69087;SDS011;56190;43.562;5.036;2023-08-06T09:28:37;3.97;;;1.10;;
69087;SDS011;56190;43.562;5.036;2023-08-06T09:31:07;2.58;;;0.90;;
69087;SDS011;56190;43.562;5.036;2023-08-06T09:33:33;4.03;;;0.93;;
69087;SDS011;56190;43.562;5.036;2023-08-06T09:36:04;4.85;;;1.13;;
69087;SDS011;56190;43.562;5.036;2023-08-06T09:38:32;5.97;;;1.42;;
69087;SDS011;56190;43.562;5.036;2023-08-06T09:41:02;2.63;;;0.80;;
69087;SDS011;56190;43.562;5.036;2023-08-06T09:43:27;4.70;;;1.00;;
69087;SDS011;56190;43.562;5.036;2023-08-06T09:45:52;3.42;;;1.00;;
69087;SDS011;56190;43.562;5.036;2023-08-06T09:48:19;4.25;;;1.17;;
69087;SDS011;56190;43.562;5.036;2023-08-06T09:50:49;3.42;;;0.77;;
69087;SDS011;56190;43.562;5.036;2023-08-06T09:53:17;4.97;;;1.30;;
69087;SDS011;56190;43.562;5.036;2023-08-06T09:55:43;3.83;;;1.15;;
69087;SDS011;56190;43.562;5.036;2023-08-06T09:58:09;3.45;;;1.02;;
69087;SDS011;56190;43.562;5.036;2023-08-06T10:00:35;2.83;;;0.82;;
69087;SDS011;56190;43.562;5.036;2023-08-06T10:03:00;4.22;;;1.00;;
69087;SDS011;56190;43.562;5.036;2023-08-06T10:05:25;5.00;;;1.20;;
69087;SDS011;56190;43.562;5.036;2023-08-06T10:07:51;3.28;;;0.98;;
69087;SDS011;56190;43.562;5.036;2023-08-06T10:10:17;3.60;;;0.88;;
69087;SDS011;56190;43.562;5.036;2023-08-06T10:12:51;2.40;;;1.02;;
69087;SDS011;56190;43.562;5.036;2023-08-06T10:15:19;4.68;;;1.05;;
69087;SDS011;56190;43.562;5.036;2023-08-06T10:17:45;6.38;;;1.40;;
69087;SDS011;56190;43.562;5.036;2023-08-06T10:20:12;5.00;;;1.02;;
69087;SDS011;56190;43.562;5.036;2023-08-06T10:22:37;3.45;;;1.02;;
69087;SDS011;56190;43.562;5.036;2023-08-06T10:25:07;3.60;;;1.00;;
69087;SDS011;56190;43.562;5.036;2023-08-06T10:27:39;4.82;;;1.13;;
69087;SDS011;56190;43.562;5.036;2023-08-06T10:32:49;3.40;;;1.00;;
69087;SDS011;56190;43.562;5.036;2023-08-06T10:35:30;4.25;;;1.23;;
69087;SDS011;56190;43.562;5.036;2023-08-06T10:38:01;4.03;;;1.00;;
69087;SDS011;56190;43.562;5.036;2023-08-06T10:40:28;3.65;;;1.20;;
69087;SDS011;56190;43.562;5.036;2023-08-06T10:42:54;2.90;;;0.73;;
69087;SDS011;56190;43.562;5.036;2023-08-06T10:45:20;2.40;;;0.98;;
69087;SDS011;56190;43.562;5.036;2023-08-06T10:47:45;1.30;;;0.90;;
69087;SDS011;56190;43.562;5.036;2023-08-06T10:50:14;3.47;;;1.05;;
69087;SDS011;56190;43.562;5.036;2023-08-06T10:52:41;4.38;;;0.93;;
69087;SDS011;56190;43.562;5.036;2023-08-06T10:55:07;5.10;;;1.10;;
69087;SDS011;56190;43.562;5.036;2023-08-06T10:57:32;3.88;;;0.90;;
69087;SDS011;56190;43.562;5.036;2023-08-06T10:59:57;1.88;;;0.70;;
69087;SDS011;56190;43.562;5.036;2023-08-06T11:02:22;2.22;;;0.75;;
69087;SDS011;56190;43.562;5.036;2023-08-06T11:04:48;2.83;;;0.70;;
69087;SDS011;56190;43.562;5.036;2023-08-06T11:07:13;2.80;;;0.73;;
69087;SDS011;56190;43.562;5.036;2023-08-06T11:09:39;3.20;;;0.70;;
69087;SDS011;56190;43.562;5.036;2023-08-06T11:12:09;2.10;;;0.65;;
69087;SDS011;56190;43.562;5.036;2023-08-06T11:14:34;1.50;;;0.52;;
69087;SDS011;56190;43.562;5.036;2023-08-06T11:16:59;2.17;;;0.57;;
69087;SDS011;56190;43.562;5.036;2023-08-06T11:19:24;2.88;;;0.50;;
69087;SDS011;56190;43.562;5.036;2023-08-06T11:21:51;3.33;;;0.80;;
69087;SDS011;56190;43.562;5.036;2023-08-06T11:24:16;1.02;;;0.40;;
69087;SDS011;56190;43.562;5.036;2023-08-06T11:26:42;2.47;;;0.85;;
69087;SDS011;56190;43.562;5.036;2023-08-06T11:29:09;3.20;;;0.55;;
69087;SDS011;56190;43.562;5.036;2023-08-06T11:31:35;2.38;;;0.75;;
69087;SDS011;56190;43.562;5.036;2023-08-06T11:34:01;1.17;;;0.55;;
69087;SDS011;56190;43.562;5.036;2023-08-06T11:36:29;3.33;;;0.40;;
69087;SDS011;56190;43.562;5.036;2023-08-06T11:38:55;2.92;;;0.43;;
69087;SDS011;56190;43.562;5.036;2023-08-06T11:41:21;1.35;;;0.32;;
69087;SDS011;56190;43.562;5.036;2023-08-06T11:43:46;1.13;;;0.50;;
69087;SDS011;56190;43.562;5.036;2023-08-06T11:46:12;1.17;;;0.50;;
69087;SDS011;56190;43.562;5.036;2023-08-06T11:48:50;2.20;;;0.50;;
69087;SDS011;56190;43.562;5.036;2023-08-06T11:51:15;1.58;;;0.30;;
69087;SDS011;56190;43.562;5.036;2023-08-06T11:53:41;1.63;;;0.40;;
69087;SDS011;56190;43.562;5.036;2023-08-06T11:56:06;2.40;;;0.43;;
69087;SDS011;56190;43.562;5.036;2023-08-06T11:58:31;2.83;;;0.52;;
69087;SDS011;56190;43.562;5.036;2023-08-06T12:00:57;1.00;;;0.40;;
69087;SDS011;56190;43.562;5.036;2023-08-06T12:03:23;1.10;;;0.40;;
69087;SDS011;56190;43.562;5.036;2023-08-06T12:05:53;3.83;;;0.60;;
69087;SDS011;56190;43.562;5.036;2023-08-06T12:08:18;3.13;;;0.52;;
69087;SDS011;56190;43.562;5.036;2023-08-06T12:10:44;1.27;;;0.50;;
69087;SDS011;56190;43.562;5.036;2023-08-06T12:13:11;3.38;;;0.82;;
69087;SDS011;56190;43.562;5.036;2023-08-06T12:15:37;1.00;;;0.40;;
69087;SDS011;56190;43.562;5.036;2023-08-06T12:18:03;2.30;;;0.40;;
69087;SDS011;56190;43.562;5.036;2023-08-06T12:20:28;1.95;;;0.50;;
69087;SDS011;56190;43.562;5.036;2023-08-06T12:22:53;1.00;;;0.40;;
69087;SDS011;56190;43.562;5.036;2023-08-06T12:25:19;2.60;;;0.50;;
69087;SDS011;56190;43.562;5.036;2023-08-06T12:27:44;2.40;;;0.70;;
69087;SDS011;56190;43.562;5.036;2023-08-06T12:30:11;1.23;;;0.40;;
69087;SDS011;56190;43.562;5.036;2023-08-06T12:32:37;1.75;;;0.70;;
69087;SDS011;56190;43.562;5.036;2023-08-06T12:35:02;2.20;;;0.70;;
69087;SDS011;56190;43.562;5.036;2023-08-06T12:37:28;2.95;;;0.40;;
69087;SDS011;56190;43.562;5.036;2023-08-06T12:39:53;2.83;;;0.68;;
69087;SDS011;56190;43.562;5.036;2023-08-06T12:42:19;1.85;;;0.50;;
69087;SDS011;56190;43.562;5.036;2023-08-06T12:44:44;3.45;;;0.50;;
69087;SDS011;56190;43.562;5.036;2023-08-06T12:47:09;2.60;;;0.60;;
69087;SDS011;56190;43.562;5.036;2023-08-06T12:49:35;3.03;;;0.70;;
69087;SDS011;56190;43.562;5.036;2023-08-06T12:52:00;2.00;;;0.50;;
69087;SDS011;56190;43.562;5.036;2023-08-06T12:54:25;1.80;;;0.40;;
69087;SDS011;56190;43.562;5.036;2023-08-06T12:56:51;2.25;;;0.50;;
69087;SDS011;56190;43.562;5.036;2023-08-06T12:59:16;2.38;;;0.50;;
69087;SDS011;56190;43.562;5.036;2023-08-06T13:01:42;0.77;;;0.65;;
69087;SDS011;56190;43.562;5.036;2023-08-06T13:04:07;4.68;;;0.80;;
69087;SDS011;56190;43.562;5.036;2023-08-06T13:06:32;1.23;;;0.50;;
69087;SDS011;56190;43.562;5.036;2023-08-06T13:09:11;1.38;;;0.30;;
69087;SDS011;56190;43.562;5.036;2023-08-06T13:11:36;2.53;;;0.70;;
69087;SDS011;56190;43.562;5.036;2023-08-06T13:14:06;2.85;;;0.70;;
69087;SDS011;56190;43.562;5.036;2023-08-06T13:16:32;2.25;;;0.50;;
69087;SDS011;56190;43.562;5.036;2023-08-06T13:18:57;1.50;;;0.73;;
69087;SDS011;56190;43.562;5.036;2023-08-06T13:21:23;2.72;;;0.70;;
69087;SDS011;56190;43.562;5.036;2023-08-06T13:23:48;2.08;;;0.50;;
69087;SDS011;56190;43.562;5.036;2023-08-06T13:26:13;1.13;;;0.50;;
69087;SDS011;56190;43.562;5.036;2023-08-06T13:28:40;1.92;;;0.75;;
69087;SDS011;56190;43.562;5.036;2023-08-06T13:31:06;1.77;;;0.65;;
69087;SDS011;56190;43.562;5.036;2023-08-06T13:33:31;4.43;;;0.70;;
69087;SDS011;56190;43.562;5.036;2023-08-06T13:35:56;2.95;;;0.70;;
69087;SDS011;56190;43.562;5.036;2023-08-06T13:38:22;1.77;;;0.70;;
69087;SDS011;56190;43.562;5.036;2023-08-06T13:40:47;2.22;;;0.57;;
69087;SDS011;56190;43.562;5.036;2023-08-06T13:43:12;1.27;;;0.50;;
69087;SDS011;56190;43.562;5.036;2023-08-06T13:45:38;1.63;;;0.57;;
69087;SDS011;56190;43.562;5.036;2023-08-06T13:48:03;2.10;;;0.80;;
69087;SDS011;56190;43.562;5.036;2023-08-06T13:50:28;3.40;;;0.63;;
69087;SDS011;56190;43.562;5.036;2023-08-06T13:52:54;2.55;;;0.60;;
69087;SDS011;56190;43.562;5.036;2023-08-06T13:55:21;3.30;;;0.80;;
69087;SDS011;56190;43.562;5.036;2023-08-06T13:57:46;1.45;;;0.52;;
69087;SDS011;56190;43.562;5.036;2023-08-06T14:00:11;2.33;;;0.60;;
69087;SDS011;56190;43.562;5.036;2023-08-06T14:02:37;2.55;;;0.60;;
69087;SDS011;56190;43.562;5.036;2023-08-06T14:05:02;1.10;;;0.70;;
69087;SDS011;56190;43.562;5.036;2023-08-06T14:07:27;3.08;;;0.63;;
69087;SDS011;56190;43.562;5.036;2023-08-06T14:09:52;3.03;;;0.60;;
69087;SDS011;56190;43.562;5.036;2023-08-06T14:12:18;1.42;;;0.70;;
69087;SDS011;56190;43.562;5.036;2023-08-06T14:14:43;3.20;;;0.80;;
69087;SDS011;56190;43.562;5.036;2023-08-06T14:17:08;1.95;;;0.50;;
69087;SDS011;56190;43.562;5.036;2023-08-06T14:19:34;1.63;;;0.70;;
69087;SDS011;56190;43.562;5.036;2023-08-06T14:21:59;1.02;;;0.50;;
69087;SDS011;56190;43.562;5.036;2023-08-06T14:24:24;5.38;;;0.85;;
69087;SDS011;56190;43.562;5.036;2023-08-06T14:26:49;2.35;;;0.68;;
69087;SDS011;56190;43.562;5.036;2023-08-06T14:29:15;1.73;;;0.57;;
69087;SDS011;56190;43.562;5.036;2023-08-06T14:31:40;1.35;;;0.57;;
69087;SDS011;56190;43.562;5.036;2023-08-06T14:34:06;1.95;;;0.70;;
69087;SDS011;56190;43.562;5.036;2023-08-06T14:36:31;3.75;;;0.98;;
69087;SDS011;56190;43.562;5.036;2023-08-06T14:38:56;3.83;;;0.60;;
69087;SDS011;56190;43.562;5.036;2023-08-06T14:41:22;1.58;;;0.65;;
69087;SDS011;56190;43.562;5.036;2023-08-06T14:43:47;2.35;;;0.60;;
69087;SDS011;56190;43.562;5.036;2023-08-06T14:46:12;2.00;;;0.80;;
69087;SDS011;56190;43.562;5.036;2023-08-06T14:48:37;2.30;;;0.60;;
69087;SDS011;56190;43.562;5.036;2023-08-06T14:51:04;3.17;;;0.70;;
69087;SDS011;56190;43.562;5.036;2023-08-06T14:53:29;0.80;;;0.50;;